sensor_id;sensor_type;location;lat;lon;timestamp;P1;durP1;ratioP1;P2;durP2;ratioP2
17818;SDS011;9034;50.284;19.310;2024-02-15T00:00:46;50.67;;;26.23;;
17818;SDS011;9034;50.284;19.310;2024-02-15T00:01:50;53.42;;;28.23;;
17818;SDS011;9034;50.284;19.310;2024-02-15T00:02:51;59.22;;;29.13;;
17818;SDS011;9034;50.284;19.310;2024-02-15T00:03:55;55.60;;;29.52;;
17818;SDS011;9034;50.284;19.310;2024-02-15T00:05:03;59.08;;;28.60;;
17818;SDS011;9034;50.284;19.310;2024-02-15T00:06:32;53.20;;;29.30;;
17818;SDS011;9034;50.284;19.310;2024-02-15T00:07:34;61.53;;;28.98;;
17818;SDS011;9034;50.284;19.310;2024-02-15T00:08:37;49.90;;;28.10;;
17818;SDS011;9034;50.284;19.310;2024-02-15T00:09:40;55.22;;;31.67;;
17818;SDS011;9034;50.284;19.310;2024-02-15T00:10:43;59.97;;;29.45;;
17818;SDS011;9034;50.284;19.310;2024-02-15T00:11:47;54.88;;;28.35;;
17818;SDS011;9034;50.284;19.310;2024-02-15T00:12:49;62.53;;;29.83;;
17818;SDS011;9034;50.284;19.310;2024-02-15T00:13:52;61.65;;;31.33;;
17818;SDS011;9034;50.284;19.310;2024-02-15T00:14:54;60.30;;;31.48;;
17818;SDS011;9034;50.284;19.310;2024-02-15T00:16:00;51.35;;;28.25;;
17818;SDS011;9034;50.284;19.310;2024-02-15T00:17:02;59.90;;;32.33;;
17818;SDS011;9034;50.284;19.310;2024-02-15T00:18:05;54.83;;;29.05;;
17818;SDS011;9034;50.284;19.310;2024-02-15T00:19:08;54.63;;;29.23;;
17818;SDS011;9034;50.284;19.310;2024-02-15T00:20:12;49.83;;;27.85;;
17818;SDS011;9034;50.284;19.310;2024-02-15T00:21:14;55.08;;;29.42;;
17818;SDS011;9034;50.284;19.310;2024-02-15T00:22:17;54.78;;;28.88;;
17818;SDS011;9034;50.284;19.310;2024-02-15T00:23:19;53.97;;;27.90;;
17818;SDS011;9034;50.284;19.310;2024-02-15T00:24:22;53.10;;;28.17;;
17818;SDS011;9034;50.284;19.310;2024-02-15T00:25:26;52.80;;;28.65;;
17818;SDS011;9034;50.284;19.310;2024-02-15T00:26:29;58.25;;;30.30;;
17818;SDS011;9034;50.284;19.310;2024-02-15T00:27:33;53.90;;;28.38;;
17818;SDS011;9034;50.284;19.310;2024-02-15T00:28:36;51.55;;;28.52;;
17818;SDS011;9034;50.284;19.310;2024-02-15T00:29:38;48.60;;;25.98;;
17818;SDS011;9034;50.284;19.310;2024-02-15T00:30:49;48.28;;;28.13;;
17818;SDS011;9034;50.284;19.310;2024-02-15T00:31:51;51.28;;;28.92;;
17818;SDS011;9034;50.284;19.310;2024-02-15T00:32:54;53.85;;;28.42;;
17818;SDS011;9034;50.284;19.310;2024-02-15T00:33:57;52.88;;;27.58;;
17818;SDS011;9034;50.284;19.310;2024-02-15T00:35:01;53.13;;;29.33;;
17818;SDS011;9034;50.284;19.310;2024-02-15T00:36:04;48.80;;;27.70;;
17818;SDS011;9034;50.284;19.310;2024-02-15T00:37:07;52.97;;;28.73;;
17818;SDS011;9034;50.284;19.310;2024-02-15T00:38:09;49.45;;;27.90;;
17818;SDS011;9034;50.284;19.310;2024-02-15T00:39:12;57.03;;;28.42;;
17818;SDS011;9034;50.284;19.310;2024-02-15T00:40:15;61.45;;;29.92;;
17818;SDS011;9034;50.284;19.310;2024-02-15T00:41:18;51.30;;;28.27;;
17818;SDS011;9034;50.284;19.310;2024-02-15T00:42:23;44.00;;;26.08;;
17818;SDS011;9034;50.284;19.310;2024-02-15T00:43:26;51.20;;;28.02;;
17818;SDS011;9034;50.284;19.310;2024-02-15T00:44:29;53.30;;;28.25;;
17818;SDS011;9034;50.284;19.310;2024-02-15T00:45:32;49.08;;;28.40;;
17818;SDS011;9034;50.284;19.310;2024-02-15T00:46:34;55.75;;;28.08;;
17818;SDS011;9034;50.284;19.310;2024-02-15T00:47:37;45.95;;;26.38;;
17818;SDS011;9034;50.284;19.310;2024-02-15T00:48:43;50.30;;;26.45;;
17818;SDS011;9034;50.284;19.310;2024-02-15T00:49:45;49.75;;;27.55;;
17818;SDS011;9034;50.284;19.310;2024-02-15T00:50:47;53.58;;;28.10;;
17818;SDS011;9034;50.284;19.310;2024-02-15T00:51:50;49.50;;;29.30;;
17818;SDS011;9034;50.284;19.310;2024-02-15T00:52:52;50.67;;;27.80;;
17818;SDS011;9034;50.284;19.310;2024-02-15T00:53:55;46.60;;;25.77;;
17818;SDS011;9034;50.284;19.310;2024-02-15T00:54:57;48.88;;;27.80;;
17818;SDS011;9034;50.284;19.310;2024-02-15T00:55:59;54.90;;;29.20;;
17818;SDS011;9034;50.284;19.310;2024-02-15T00:57:04;53.05;;;28.77;;
17818;SDS011;9034;50.284;19.310;2024-02-15T00:58:06;52.42;;;29.42;;
17818;SDS011;9034;50.284;19.310;2024-02-15T00:59:09;60.60;;;31.23;;
17818;SDS011;9034;50.284;19.310;2024-02-15T01:00:11;57.78;;;29.38;;
17818;SDS011;9034;50.284;19.310;2024-02-15T01:01:15;45.75;;;27.35;;
17818;SDS011;9034;50.284;19.310;2024-02-15T01:02:17;44.72;;;25.02;;
17818;SDS011;9034;50.284;19.310;2024-02-15T01:03:20;42.45;;;24.42;;
17818;SDS011;9034;50.284;19.310;2024-02-15T01:04:22;43.97;;;23.88;;
17818;SDS011;9034;50.284;19.310;2024-02-15T01:05:25;45.60;;;23.98;;
17818;SDS011;9034;50.284;19.310;2024-02-15T01:06:27;42.17;;;24.65;;
17818;SDS011;9034;50.284;19.310;2024-02-15T01:07:29;40.30;;;24.05;;
17818;SDS011;9034;50.284;19.310;2024-02-15T01:08:32;40.95;;;23.77;;
17818;SDS011;9034;50.284;19.310;2024-02-15T01:09:34;40.53;;;23.05;;
17818;SDS011;9034;50.284;19.310;2024-02-15T01:10:37;43.42;;;23.50;;
17818;SDS011;9034;50.284;19.310;2024-02-15T01:11:39;42.90;;;23.17;;
17818;SDS011;9034;50.284;19.310;2024-02-15T01:12:44;42.22;;;22.92;;
17818;SDS011;9034;50.284;19.310;2024-02-15T01:13:46;38.22;;;22.90;;
17818;SDS011;9034;50.284;19.310;2024-02-15T01:14:49;41.13;;;23.98;;
17818;SDS011;9034;50.284;19.310;2024-02-15T01:15:51;41.70;;;23.95;;
17818;SDS011;9034;50.284;19.310;2024-02-15T01:16:54;40.40;;;23.52;;
17818;SDS011;9034;50.284;19.310;2024-02-15T01:17:56;46.85;;;24.23;;
17818;SDS011;9034;50.284;19.310;2024-02-15T01:18:59;40.75;;;23.25;;
17818;SDS011;9034;50.284;19.310;2024-02-15T01:20:02;40.05;;;22.65;;
17818;SDS011;9034;50.284;19.310;2024-02-15T01:21:05;39.28;;;22.13;;
17818;SDS011;9034;50.284;19.310;2024-02-15T01:22:08;40.83;;;22.92;;
17818;SDS011;9034;50.284;19.310;2024-02-15T01:23:11;40.40;;;23.58;;
17818;SDS011;9034;50.284;19.310;2024-02-15T01:24:13;41.60;;;23.58;;
17818;SDS011;9034;50.284;19.310;2024-02-15T01:25:16;38.20;;;22.38;;
17818;SDS011;9034;50.284;19.310;2024-02-15T01:26:18;42.55;;;22.50;;
17818;SDS011;9034;50.284;19.310;2024-02-15T01:27:21;42.13;;;22.92;;
17818;SDS011;9034;50.284;19.310;2024-02-15T01:28:25;43.53;;;23.73;;
17818;SDS011;9034;50.284;19.310;2024-02-15T01:29:27;40.20;;;23.33;;
17818;SDS011;9034;50.284;19.310;2024-02-15T01:30:30;37.85;;;22.27;;
17818;SDS011;9034;50.284;19.310;2024-02-15T01:31:33;38.30;;;22.60;;
17818;SDS011;9034;50.284;19.310;2024-02-15T01:32:35;40.83;;;23.10;;
17818;SDS011;9034;50.284;19.310;2024-02-15T01:33:38;38.30;;;22.25;;
17818;SDS011;9034;50.284;19.310;2024-02-15T01:34:40;37.72;;;22.60;;
17818;SDS011;9034;50.284;19.310;2024-02-15T01:35:44;37.78;;;21.17;;
17818;SDS011;9034;50.284;19.310;2024-02-15T01:36:47;39.22;;;21.38;;
17818;SDS011;9034;50.284;19.310;2024-02-15T01:37:50;36.38;;;22.02;;
17818;SDS011;9034;50.284;19.310;2024-02-15T01:38:52;32.70;;;20.27;;
17818;SDS011;9034;50.284;19.310;2024-02-15T01:39:55;38.60;;;21.75;;
17818;SDS011;9034;50.284;19.310;2024-02-15T01:40:57;35.17;;;21.45;;
17818;SDS011;9034;50.284;19.310;2024-02-15T01:42:00;34.22;;;20.85;;
17818;SDS011;9034;50.284;19.310;2024-02-15T01:43:04;34.42;;;20.65;;
17818;SDS011;9034;50.284;19.310;2024-02-15T01:44:09;39.42;;;21.40;;
17818;SDS011;9034;50.284;19.310;2024-02-15T01:45:13;35.78;;;20.95;;
17818;SDS011;9034;50.284;19.310;2024-02-15T01:46:16;39.78;;;21.63;;
17818;SDS011;9034;50.284;19.310;2024-02-15T01:47:19;44.72;;;24.45;;
17818;SDS011;9034;50.284;19.310;2024-02-15T01:48:22;41.70;;;23.08;;
17818;SDS011;9034;50.284;19.310;2024-02-15T01:49:24;45.10;;;23.00;;
17818;SDS011;9034;50.284;19.310;2024-02-15T01:50:28;35.10;;;21.20;;
17818;SDS011;9034;50.284;19.310;2024-02-15T01:51:30;38.92;;;22.45;;
17818;SDS011;9034;50.284;19.310;2024-02-15T01:52:34;42.50;;;21.13;;
17818;SDS011;9034;50.284;19.310;2024-02-15T01:53:37;41.72;;;21.60;;
17818;SDS011;9034;50.284;19.310;2024-02-15T01:54:40;32.70;;;19.33;;
17818;SDS011;9034;50.284;19.310;2024-02-15T01:55:42;36.63;;;20.42;;
17818;SDS011;9034;50.284;19.310;2024-02-15T01:56:45;33.80;;;20.10;;
17818;SDS011;9034;50.284;19.310;2024-02-15T01:57:48;38.80;;;21.77;;
17818;SDS011;9034;50.284;19.310;2024-02-15T01:58:51;40.65;;;21.55;;
17818;SDS011;9034;50.284;19.310;2024-02-15T01:59:54;40.70;;;21.88;;
17818;SDS011;9034;50.284;19.310;2024-02-15T02:00:57;35.72;;;20.77;;
17818;SDS011;9034;50.284;19.310;2024-02-15T02:02:00;33.92;;;21.88;;
17818;SDS011;9034;50.284;19.310;2024-02-15T02:03:03;36.95;;;20.83;;
17818;SDS011;9034;50.284;19.310;2024-02-15T02:04:06;36.97;;;22.05;;
17818;SDS011;9034;50.284;19.310;2024-02-15T02:05:10;32.17;;;20.70;;
17818;SDS011;9034;50.284;19.310;2024-02-15T02:06:12;33.83;;;19.63;;
17818;SDS011;9034;50.284;19.310;2024-02-15T02:07:16;33.40;;;19.88;;
17818;SDS011;9034;50.284;19.310;2024-02-15T02:08:18;36.70;;;20.95;;
17818;SDS011;9034;50.284;19.310;2024-02-15T02:09:21;31.25;;;19.27;;
17818;SDS011;9034;50.284;19.310;2024-02-15T02:10:23;33.22;;;20.33;;
17818;SDS011;9034;50.284;19.310;2024-02-15T02:11:26;35.50;;;20.45;;
17818;SDS011;9034;50.284;19.310;2024-02-15T02:12:29;37.47;;;21.65;;
17818;SDS011;9034;50.284;19.310;2024-02-15T02:13:32;35.10;;;20.15;;
17818;SDS011;9034;50.284;19.310;2024-02-15T02:14:34;30.85;;;19.02;;
17818;SDS011;9034;50.284;19.310;2024-02-15T02:15:39;38.53;;;21.27;;
17818;SDS011;9034;50.284;19.310;2024-02-15T02:16:41;45.80;;;25.83;;
17818;SDS011;9034;50.284;19.310;2024-02-15T02:17:47;53.40;;;22.40;;
17818;SDS011;9034;50.284;19.310;2024-02-15T02:18:50;41.63;;;20.95;;
17818;SDS011;9034;50.284;19.310;2024-02-15T02:19:53;31.00;;;18.92;;
17818;SDS011;9034;50.284;19.310;2024-02-15T02:20:56;29.83;;;18.92;;
17818;SDS011;9034;50.284;19.310;2024-02-15T02:21:59;35.25;;;20.00;;
17818;SDS011;9034;50.284;19.310;2024-02-15T02:23:03;37.72;;;19.85;;
17818;SDS011;9034;50.284;19.310;2024-02-15T02:24:10;34.33;;;19.20;;
17818;SDS011;9034;50.284;19.310;2024-02-15T02:25:17;33.13;;;19.95;;
17818;SDS011;9034;50.284;19.310;2024-02-15T02:26:20;33.40;;;18.58;;
17818;SDS011;9034;50.284;19.310;2024-02-15T02:27:22;34.55;;;18.73;;
17818;SDS011;9034;50.284;19.310;2024-02-15T02:28:26;33.30;;;19.52;;
17818;SDS011;9034;50.284;19.310;2024-02-15T02:29:28;30.90;;;19.05;;
17818;SDS011;9034;50.284;19.310;2024-02-15T02:30:31;31.23;;;18.70;;
17818;SDS011;9034;50.284;19.310;2024-02-15T02:31:34;28.85;;;17.92;;
17818;SDS011;9034;50.284;19.310;2024-02-15T02:32:37;36.20;;;19.83;;
17818;SDS011;9034;50.284;19.310;2024-02-15T02:33:41;33.63;;;19.50;;
17818;SDS011;9034;50.284;19.310;2024-02-15T02:34:44;32.38;;;19.15;;
17818;SDS011;9034;50.284;19.310;2024-02-15T02:35:46;32.35;;;18.27;;
17818;SDS011;9034;50.284;19.310;2024-02-15T02:36:49;36.60;;;19.40;;
17818;SDS011;9034;50.284;19.310;2024-02-15T02:37:52;36.22;;;19.60;;
17818;SDS011;9034;50.284;19.310;2024-02-15T02:38:55;33.10;;;19.20;;
17818;SDS011;9034;50.284;19.310;2024-02-15T02:40:02;37.65;;;19.80;;
17818;SDS011;9034;50.284;19.310;2024-02-15T02:41:07;35.42;;;19.83;;
17818;SDS011;9034;50.284;19.310;2024-02-15T02:42:09;35.58;;;19.23;;
17818;SDS011;9034;50.284;19.310;2024-02-15T02:43:12;34.35;;;19.77;;
17818;SDS011;9034;50.284;19.310;2024-02-15T02:44:14;33.35;;;18.80;;
17818;SDS011;9034;50.284;19.310;2024-02-15T02:45:17;30.55;;;18.27;;
17818;SDS011;9034;50.284;19.310;2024-02-15T02:46:21;32.78;;;19.38;;
17818;SDS011;9034;50.284;19.310;2024-02-15T02:47:24;34.13;;;18.63;;
17818;SDS011;9034;50.284;19.310;2024-02-15T02:48:26;32.13;;;18.35;;
17818;SDS011;9034;50.284;19.310;2024-02-15T02:49:29;34.25;;;19.65;;
17818;SDS011;9034;50.284;19.310;2024-02-15T02:50:31;30.27;;;18.10;;
17818;SDS011;9034;50.284;19.310;2024-02-15T02:51:34;32.53;;;19.60;;
17818;SDS011;9034;50.284;19.310;2024-02-15T02:52:36;37.75;;;19.27;;
17818;SDS011;9034;50.284;19.310;2024-02-15T02:53:40;30.25;;;18.67;;
17818;SDS011;9034;50.284;19.310;2024-02-15T02:54:42;31.90;;;18.38;;
17818;SDS011;9034;50.284;19.310;2024-02-15T02:55:45;30.83;;;18.95;;
17818;SDS011;9034;50.284;19.310;2024-02-15T02:56:49;29.38;;;17.48;;
17818;SDS011;9034;50.284;19.310;2024-02-15T02:57:52;32.15;;;18.50;;
17818;SDS011;9034;50.284;19.310;2024-02-15T02:58:56;30.30;;;17.33;;
17818;SDS011;9034;50.284;19.310;2024-02-15T02:59:59;30.25;;;17.73;;
17818;SDS011;9034;50.284;19.310;2024-02-15T03:01:01;32.35;;;17.38;;
17818;SDS011;9034;50.284;19.310;2024-02-15T03:02:04;29.60;;;17.52;;
17818;SDS011;9034;50.284;19.310;2024-02-15T03:03:06;29.45;;;17.70;;
17818;SDS011;9034;50.284;19.310;2024-02-15T03:04:09;32.10;;;18.10;;
17818;SDS011;9034;50.284;19.310;2024-02-15T03:05:13;30.63;;;18.85;;
17818;SDS011;9034;50.284;19.310;2024-02-15T03:06:16;35.40;;;19.83;;
17818;SDS011;9034;50.284;19.310;2024-02-15T03:07:19;31.73;;;19.15;;
17818;SDS011;9034;50.284;19.310;2024-02-15T03:08:21;32.45;;;19.95;;
17818;SDS011;9034;50.284;19.310;2024-02-15T03:09:25;36.72;;;20.27;;
17818;SDS011;9034;50.284;19.310;2024-02-15T03:10:30;37.35;;;20.40;;
17818;SDS011;9034;50.284;19.310;2024-02-15T03:11:34;33.25;;;20.83;;
17818;SDS011;9034;50.284;19.310;2024-02-15T03:12:39;31.30;;;18.98;;
17818;SDS011;9034;50.284;19.310;2024-02-15T03:13:42;33.80;;;20.05;;
17818;SDS011;9034;50.284;19.310;2024-02-15T03:14:45;36.28;;;19.80;;
17818;SDS011;9034;50.284;19.310;2024-02-15T03:15:48;35.90;;;19.27;;
17818;SDS011;9034;50.284;19.310;2024-02-15T03:16:50;36.80;;;20.35;;
17818;SDS011;9034;50.284;19.310;2024-02-15T03:17:53;30.58;;;19.20;;
17818;SDS011;9034;50.284;19.310;2024-02-15T03:18:56;30.55;;;19.08;;
17818;SDS011;9034;50.284;19.310;2024-02-15T03:19:59;37.05;;;20.85;;
17818;SDS011;9034;50.284;19.310;2024-02-15T03:21:02;32.05;;;20.10;;
17818;SDS011;9034;50.284;19.310;2024-02-15T03:22:05;32.53;;;19.15;;
17818;SDS011;9034;50.284;19.310;2024-02-15T03:23:07;37.58;;;20.42;;
17818;SDS011;9034;50.284;19.310;2024-02-15T03:24:10;33.08;;;18.75;;
17818;SDS011;9034;50.284;19.310;2024-02-15T03:25:12;35.40;;;18.92;;
17818;SDS011;9034;50.284;19.310;2024-02-15T03:26:15;32.38;;;19.02;;
17818;SDS011;9034;50.284;19.310;2024-02-15T03:27:23;29.42;;;17.83;;
17818;SDS011;9034;50.284;19.310;2024-02-15T03:28:27;31.48;;;19.13;;
17818;SDS011;9034;50.284;19.310;2024-02-15T03:29:29;32.75;;;17.95;;
17818;SDS011;9034;50.284;19.310;2024-02-15T03:30:32;28.85;;;17.90;;
17818;SDS011;9034;50.284;19.310;2024-02-15T03:31:35;32.95;;;19.35;;
17818;SDS011;9034;50.284;19.310;2024-02-15T03:32:38;29.17;;;18.73;;
17818;SDS011;9034;50.284;19.310;2024-02-15T03:33:42;33.42;;;18.35;;
17818;SDS011;9034;50.284;19.310;2024-02-15T03:34:45;35.35;;;18.10;;
17818;SDS011;9034;50.284;19.310;2024-02-15T03:35:47;31.17;;;17.30;;
17818;SDS011;9034;50.284;19.310;2024-02-15T03:36:50;26.70;;;17.88;;
17818;SDS011;9034;50.284;19.310;2024-02-15T03:37:55;27.10;;;17.00;;
17818;SDS011;9034;50.284;19.310;2024-02-15T03:38:58;27.45;;;17.10;;
17818;SDS011;9034;50.284;19.310;2024-02-15T03:40:00;36.97;;;18.40;;
17818;SDS011;9034;50.284;19.310;2024-02-15T03:41:03;45.55;;;18.67;;
17818;SDS011;9034;50.284;19.310;2024-02-15T03:42:05;39.55;;;19.30;;
17818;SDS011;9034;50.284;19.310;2024-02-15T03:43:08;48.78;;;19.95;;
17818;SDS011;9034;50.284;19.310;2024-02-15T03:44:11;46.13;;;18.73;;
17818;SDS011;9034;50.284;19.310;2024-02-15T03:45:14;46.45;;;18.98;;
17818;SDS011;9034;50.284;19.310;2024-02-15T03:46:17;51.92;;;19.48;;
17818;SDS011;9034;50.284;19.310;2024-02-15T03:47:20;41.38;;;18.35;;
17818;SDS011;9034;50.284;19.310;2024-02-15T03:48:23;33.03;;;17.98;;
17818;SDS011;9034;50.284;19.310;2024-02-15T03:49:26;46.80;;;19.10;;
17818;SDS011;9034;50.284;19.310;2024-02-15T03:50:28;46.10;;;17.70;;
17818;SDS011;9034;50.284;19.310;2024-02-15T03:51:34;48.35;;;19.33;;
17818;SDS011;9034;50.284;19.310;2024-02-15T03:52:36;59.67;;;18.90;;
17818;SDS011;9034;50.284;19.310;2024-02-15T03:53:39;41.65;;;18.50;;
17818;SDS011;9034;50.284;19.310;2024-02-15T03:54:41;38.22;;;17.75;;
17818;SDS011;9034;50.284;19.310;2024-02-15T03:55:44;36.70;;;17.70;;
17818;SDS011;9034;50.284;19.310;2024-02-15T03:56:48;44.63;;;18.40;;
17818;SDS011;9034;50.284;19.310;2024-02-15T03:57:53;39.78;;;19.13;;
17818;SDS011;9034;50.284;19.310;2024-02-15T03:58:57;41.03;;;19.58;;
17818;SDS011;9034;50.284;19.310;2024-02-15T04:00:01;44.08;;;20.17;;
17818;SDS011;9034;50.284;19.310;2024-02-15T04:01:10;40.88;;;18.48;;
17818;SDS011;9034;50.284;19.310;2024-02-15T04:02:12;43.10;;;18.48;;
17818;SDS011;9034;50.284;19.310;2024-02-15T04:03:16;37.13;;;18.45;;
17818;SDS011;9034;50.284;19.310;2024-02-15T04:04:18;43.38;;;18.25;;
17818;SDS011;9034;50.284;19.310;2024-02-15T04:05:22;41.92;;;18.63;;
17818;SDS011;9034;50.284;19.310;2024-02-15T04:06:25;35.58;;;17.67;;
17818;SDS011;9034;50.284;19.310;2024-02-15T04:07:32;43.25;;;17.88;;
17818;SDS011;9034;50.284;19.310;2024-02-15T04:08:34;34.75;;;17.38;;
17818;SDS011;9034;50.284;19.310;2024-02-15T04:09:40;37.65;;;18.08;;
17818;SDS011;9034;50.284;19.310;2024-02-15T04:10:42;38.97;;;17.50;;
17818;SDS011;9034;50.284;19.310;2024-02-15T04:11:49;38.80;;;19.02;;
17818;SDS011;9034;50.284;19.310;2024-02-15T04:12:55;45.45;;;19.90;;
17818;SDS011;9034;50.284;19.310;2024-02-15T04:13:59;59.50;;;20.58;;
17818;SDS011;9034;50.284;19.310;2024-02-15T04:15:03;38.53;;;19.30;;
17818;SDS011;9034;50.284;19.310;2024-02-15T04:16:14;35.30;;;17.92;;
17818;SDS011;9034;50.284;19.310;2024-02-15T04:17:18;29.92;;;16.80;;
17818;SDS011;9034;50.284;19.310;2024-02-15T04:18:23;30.77;;;17.92;;
17818;SDS011;9034;50.284;19.310;2024-02-15T04:19:25;32.30;;;17.63;;
17818;SDS011;9034;50.284;19.310;2024-02-15T04:20:28;30.52;;;17.65;;
17818;SDS011;9034;50.284;19.310;2024-02-15T04:21:30;34.45;;;17.92;;
17818;SDS011;9034;50.284;19.310;2024-02-15T04:22:34;29.80;;;17.60;;
17818;SDS011;9034;50.284;19.310;2024-02-15T04:23:38;32.45;;;16.85;;
17818;SDS011;9034;50.284;19.310;2024-02-15T04:24:41;32.97;;;17.73;;
17818;SDS011;9034;50.284;19.310;2024-02-15T04:25:44;31.48;;;18.23;;
17818;SDS011;9034;50.284;19.310;2024-02-15T04:26:48;33.10;;;17.15;;
17818;SDS011;9034;50.284;19.310;2024-02-15T04:27:51;32.45;;;16.52;;
17818;SDS011;9034;50.284;19.310;2024-02-15T04:28:53;27.00;;;16.67;;
17818;SDS011;9034;50.284;19.310;2024-02-15T04:29:56;30.35;;;16.08;;
17818;SDS011;9034;50.284;19.310;2024-02-15T04:30:59;30.70;;;16.17;;
17818;SDS011;9034;50.284;19.310;2024-02-15T04:32:02;32.60;;;18.05;;
17818;SDS011;9034;50.284;19.310;2024-02-15T04:33:05;32.25;;;17.45;;
17818;SDS011;9034;50.284;19.310;2024-02-15T04:34:07;32.55;;;17.05;;
17818;SDS011;9034;50.284;19.310;2024-02-15T04:35:12;33.28;;;16.17;;
17818;SDS011;9034;50.284;19.310;2024-02-15T04:36:16;30.17;;;16.90;;
17818;SDS011;9034;50.284;19.310;2024-02-15T04:37:24;26.63;;;15.82;;
17818;SDS011;9034;50.284;19.310;2024-02-15T04:38:28;31.55;;;15.88;;
17818;SDS011;9034;50.284;19.310;2024-02-15T04:39:30;28.95;;;16.13;;
17818;SDS011;9034;50.284;19.310;2024-02-15T04:40:33;29.92;;;16.48;;
17818;SDS011;9034;50.284;19.310;2024-02-15T04:41:36;27.95;;;16.10;;
17818;SDS011;9034;50.284;19.310;2024-02-15T04:42:40;29.70;;;15.88;;
17818;SDS011;9034;50.284;19.310;2024-02-15T04:43:45;27.90;;;16.08;;
17818;SDS011;9034;50.284;19.310;2024-02-15T04:44:48;29.92;;;16.90;;
17818;SDS011;9034;50.284;19.310;2024-02-15T04:45:53;27.33;;;15.68;;
17818;SDS011;9034;50.284;19.310;2024-02-15T04:46:58;29.85;;;15.50;;
17818;SDS011;9034;50.284;19.310;2024-02-15T04:48:00;29.05;;;17.30;;
17818;SDS011;9034;50.284;19.310;2024-02-15T04:49:04;29.67;;;16.98;;
17818;SDS011;9034;50.284;19.310;2024-02-15T04:50:07;31.65;;;17.50;;
17818;SDS011;9034;50.284;19.310;2024-02-15T04:51:11;33.60;;;18.05;;
17818;SDS011;9034;50.284;19.310;2024-02-15T04:52:13;34.30;;;18.70;;
17818;SDS011;9034;50.284;19.310;2024-02-15T04:53:19;31.17;;;18.73;;
17818;SDS011;9034;50.284;19.310;2024-02-15T04:54:21;35.28;;;17.50;;
17818;SDS011;9034;50.284;19.310;2024-02-15T04:55:24;31.77;;;18.20;;
17818;SDS011;9034;50.284;19.310;2024-02-15T04:56:27;36.90;;;18.52;;
17818;SDS011;9034;50.284;19.310;2024-02-15T04:57:30;32.17;;;18.15;;
17818;SDS011;9034;50.284;19.310;2024-02-15T04:58:35;34.95;;;18.55;;
17818;SDS011;9034;50.284;19.310;2024-02-15T04:59:39;30.92;;;17.58;;
17818;SDS011;9034;50.284;19.310;2024-02-15T05:00:40;31.38;;;17.90;;
17818;SDS011;9034;50.284;19.310;2024-02-15T05:01:43;40.92;;;17.85;;
17818;SDS011;9034;50.284;19.310;2024-02-15T05:02:47;33.85;;;17.65;;
17818;SDS011;9034;50.284;19.310;2024-02-15T05:03:51;32.45;;;18.50;;
17818;SDS011;9034;50.284;19.310;2024-02-15T05:04:57;34.50;;;19.33;;
17818;SDS011;9034;50.284;19.310;2024-02-15T05:05:59;39.15;;;19.42;;
17818;SDS011;9034;50.284;19.310;2024-02-15T05:07:02;34.90;;;18.33;;
17818;SDS011;9034;50.284;19.310;2024-02-15T05:08:05;33.15;;;18.38;;
17818;SDS011;9034;50.284;19.310;2024-02-15T05:09:10;34.38;;;18.63;;
17818;SDS011;9034;50.284;19.310;2024-02-15T05:10:13;35.55;;;16.88;;
17818;SDS011;9034;50.284;19.310;2024-02-15T05:11:16;29.52;;;16.77;;
17818;SDS011;9034;50.284;19.310;2024-02-15T05:12:21;36.97;;;17.95;;
17818;SDS011;9034;50.284;19.310;2024-02-15T05:13:24;35.45;;;17.73;;
17818;SDS011;9034;50.284;19.310;2024-02-15T05:14:27;40.15;;;18.67;;
17818;SDS011;9034;50.284;19.310;2024-02-15T05:15:29;38.47;;;18.60;;
17818;SDS011;9034;50.284;19.310;2024-02-15T05:16:32;38.20;;;19.25;;
17818;SDS011;9034;50.284;19.310;2024-02-15T05:17:34;46.47;;;20.15;;
17818;SDS011;9034;50.284;19.310;2024-02-15T05:18:39;43.85;;;19.13;;
17818;SDS011;9034;50.284;19.310;2024-02-15T05:19:41;44.75;;;17.80;;
17818;SDS011;9034;50.284;19.310;2024-02-15T05:20:44;57.50;;;19.85;;
17818;SDS011;9034;50.284;19.310;2024-02-15T05:21:46;38.80;;;18.90;;
17818;SDS011;9034;50.284;19.310;2024-02-15T05:22:49;50.10;;;19.45;;
17818;SDS011;9034;50.284;19.310;2024-02-15T05:23:52;45.63;;;19.65;;
17818;SDS011;9034;50.284;19.310;2024-02-15T05:24:55;44.47;;;19.33;;
17818;SDS011;9034;50.284;19.310;2024-02-15T05:25:57;43.45;;;19.27;;
17818;SDS011;9034;50.284;19.310;2024-02-15T05:27:00;36.03;;;18.75;;
17818;SDS011;9034;50.284;19.310;2024-02-15T05:28:02;41.95;;;17.85;;
17818;SDS011;9034;50.284;19.310;2024-02-15T05:29:08;45.95;;;18.48;;
17818;SDS011;9034;50.284;19.310;2024-02-15T05:30:12;36.35;;;18.60;;
17818;SDS011;9034;50.284;19.310;2024-02-15T05:31:17;43.45;;;19.10;;
17818;SDS011;9034;50.284;19.310;2024-02-15T05:32:21;35.90;;;18.98;;
17818;SDS011;9034;50.284;19.310;2024-02-15T05:33:23;42.20;;;19.63;;
17818;SDS011;9034;50.284;19.310;2024-02-15T05:34:28;38.47;;;18.08;;
17818;SDS011;9034;50.284;19.310;2024-02-15T05:35:31;32.78;;;18.33;;
17818;SDS011;9034;50.284;19.310;2024-02-15T05:36:34;37.10;;;18.17;;
17818;SDS011;9034;50.284;19.310;2024-02-15T05:37:36;36.10;;;18.02;;
17818;SDS011;9034;50.284;19.310;2024-02-15T05:38:39;41.75;;;17.67;;
17818;SDS011;9034;50.284;19.310;2024-02-15T05:39:42;33.60;;;17.08;;
17818;SDS011;9034;50.284;19.310;2024-02-15T05:40:46;36.55;;;17.92;;
17818;SDS011;9034;50.284;19.310;2024-02-15T05:41:49;37.78;;;17.98;;
17818;SDS011;9034;50.284;19.310;2024-02-15T05:42:56;33.42;;;18.10;;
17818;SDS011;9034;50.284;19.310;2024-02-15T05:43:59;39.75;;;17.90;;
17818;SDS011;9034;50.284;19.310;2024-02-15T05:45:14;34.33;;;17.60;;
17818;SDS011;9034;50.284;19.310;2024-02-15T05:46:31;30.40;;;17.05;;
17818;SDS011;9034;50.284;19.310;2024-02-15T05:47:35;31.52;;;16.95;;
17818;SDS011;9034;50.284;19.310;2024-02-15T05:48:37;36.38;;;17.55;;
17818;SDS011;9034;50.284;19.310;2024-02-15T05:49:42;36.50;;;17.33;;
17818;SDS011;9034;50.284;19.310;2024-02-15T05:50:44;34.17;;;17.80;;
17818;SDS011;9034;50.284;19.310;2024-02-15T05:51:48;34.65;;;16.85;;
17818;SDS011;9034;50.284;19.310;2024-02-15T05:52:50;39.97;;;18.58;;
17818;SDS011;9034;50.284;19.310;2024-02-15T05:53:54;38.50;;;16.88;;
17818;SDS011;9034;50.284;19.310;2024-02-15T05:55:00;30.00;;;16.02;;
17818;SDS011;9034;50.284;19.310;2024-02-15T05:56:04;28.05;;;16.88;;
17818;SDS011;9034;50.284;19.310;2024-02-15T05:57:08;34.03;;;17.25;;
17818;SDS011;9034;50.284;19.310;2024-02-15T05:58:11;32.42;;;15.35;;
17818;SDS011;9034;50.284;19.310;2024-02-15T05:59:15;28.85;;;15.77;;
17818;SDS011;9034;50.284;19.310;2024-02-15T06:00:18;27.83;;;15.45;;
17818;SDS011;9034;50.284;19.310;2024-02-15T06:01:24;27.25;;;16.27;;
17818;SDS011;9034;50.284;19.310;2024-02-15T06:02:27;34.88;;;17.10;;
17818;SDS011;9034;50.284;19.310;2024-02-15T06:03:29;33.78;;;17.15;;
17818;SDS011;9034;50.284;19.310;2024-02-15T06:04:33;33.08;;;15.63;;
17818;SDS011;9034;50.284;19.310;2024-02-15T06:05:37;32.70;;;16.55;;
17818;SDS011;9034;50.284;19.310;2024-02-15T06:06:40;35.28;;;17.13;;
17818;SDS011;9034;50.284;19.310;2024-02-15T06:07:43;35.83;;;17.40;;
17818;SDS011;9034;50.284;19.310;2024-02-15T06:08:49;30.08;;;16.50;;
17818;SDS011;9034;50.284;19.310;2024-02-15T06:09:51;31.52;;;16.75;;
17818;SDS011;9034;50.284;19.310;2024-02-15T06:10:54;67.35;;;24.30;;